sensor_id;sensor_type;location;lat;lon;timestamp;pressure;altitude;pressure_sealevel;temperature;humidity
58662;BME280;44432;49.786;22.760;2024-02-16T00:00:35;100107.69;;;0.66;80.12
58662;BME280;44432;49.786;22.760;2024-02-16T00:03:26;100113.30;;;0.61;80.45
58662;BME280;44432;49.786;22.760;2024-02-16T00:05:57;100111.29;;;0.58;80.60
58662;BME280;44432;49.786;22.760;2024-02-16T00:08:27;100109.08;;;0.58;81.03
58662;BME280;44432;49.786;22.760;2024-02-16T00:10:59;100104.23;;;0.58;81.19
58662;BME280;44432;49.786;22.760;2024-02-16T00:13:29;100101.85;;;0.57;81.27
58662;BME280;44432;49.786;22.760;2024-02-16T00:16:00;100096.98;;;0.55;81.32
58662;BME280;44432;49.786;22.760;2024-02-16T00:18:31;100097.78;;;0.54;81.35
58662;BME280;44432;49.786;22.760;2024-02-16T00:21:02;100095.84;;;0.55;81.55
58662;BME280;44432;49.786;22.760;2024-02-16T00:23:33;100095.50;;;0.53;81.49
58662;BME280;44432;49.786;22.760;2024-02-16T00:26:04;100099.75;;;0.49;81.63
58662;BME280;44432;49.786;22.760;2024-02-16T00:28:36;100099.20;;;0.46;81.63
58662;BME280;44432;49.786;22.760;2024-02-16T00:31:07;100101.82;;;0.44;81.81
58662;BME280;44432;49.786;22.760;2024-02-16T00:33:38;100097.45;;;0.42;81.83
58662;BME280;44432;49.786;22.760;2024-02-16T00:36:09;100092.45;;;0.40;81.98
58662;BME280;44432;49.786;22.760;2024-02-16T00:38:40;100091.89;;;0.38;82.11
58662;BME280;44432;49.786;22.760;2024-02-16T00:41:18;100091.66;;;0.37;82.02
58662;BME280;44432;49.786;22.760;2024-02-16T00:43:49;100092.98;;;0.35;82.16
58662;BME280;44432;49.786;22.760;2024-02-16T00:46:20;100093.77;;;0.32;82.04
58662;BME280;44432;49.786;22.760;2024-02-16T00:48:52;100092.30;;;0.29;82.11
58662;BME280;44432;49.786;22.760;2024-02-16T00:51:23;100089.92;;;0.26;82.25
58662;BME280;44432;49.786;22.760;2024-02-16T00:53:55;100088.48;;;0.24;82.29
58662;BME280;44432;49.786;22.760;2024-02-16T00:56:26;100084.25;;;0.21;82.31
58662;BME280;44432;49.786;22.760;2024-02-16T00:58:57;100092.95;;;0.18;82.36
58662;BME280;44432;49.786;22.760;2024-02-16T01:01:29;100090.16;;;0.15;82.27
58662;BME280;44432;49.786;22.760;2024-02-16T01:04:00;100088.77;;;0.13;82.56
58662;BME280;44432;49.786;22.760;2024-02-16T01:06:32;100085.14;;;0.11;82.52
58662;BME280;44432;49.786;22.760;2024-02-16T01:09:02;100083.90;;;0.09;82.71
58662;BME280;44432;49.786;22.760;2024-02-16T01:11:33;100081.45;;;0.07;82.84
58662;BME280;44432;49.786;22.760;2024-02-16T01:14:04;100078.79;;;0.06;82.83
58662;BME280;44432;49.786;22.760;2024-02-16T01:16:35;100077.64;;;0.05;82.86
58662;BME280;44432;49.786;22.760;2024-02-16T01:19:06;100075.90;;;0.03;83.05
58662;BME280;44432;49.786;22.760;2024-02-16T01:21:36;100077.72;;;0.02;83.04
58662;BME280;44432;49.786;22.760;2024-02-16T01:24:08;100076.48;;;-0.02;82.96
58662;BME280;44432;49.786;22.760;2024-02-16T01:26:38;100078.63;;;-0.03;83.16
58662;BME280;44432;49.786;22.760;2024-02-16T01:29:09;100076.13;;;-0.04;83.22
58662;BME280;44432;49.786;22.760;2024-02-16T01:31:40;100076.85;;;-0.06;83.10
58662;BME280;44432;49.786;22.760;2024-02-16T01:34:11;100074.02;;;-0.08;83.23
58662;BME280;44432;49.786;22.760;2024-02-16T01:36:42;100073.95;;;-0.09;83.33
58662;BME280;44432;49.786;22.760;2024-02-16T01:39:13;100069.60;;;-0.10;83.41
58662;BME280;44432;49.786;22.760;2024-02-16T01:41:43;100067.16;;;-0.12;83.20
58662;BME280;44432;49.786;22.760;2024-02-16T01:44:14;100067.67;;;-0.16;83.31
58662;BME280;44432;49.786;22.760;2024-02-16T01:46:46;100069.17;;;-0.20;83.45
58662;BME280;44432;49.786;22.760;2024-02-16T01:49:17;100069.46;;;-0.21;83.45
58662;BME280;44432;49.786;22.760;2024-02-16T01:51:48;100066.98;;;-0.23;83.66
58662;BME280;44432;49.786;22.760;2024-02-16T01:54:19;100068.23;;;-0.23;83.76
58662;BME280;44432;49.786;22.760;2024-02-16T01:56:50;100067.30;;;-0.25;83.74
58662;BME280;44432;49.786;22.760;2024-02-16T01:59:21;100065.10;;;-0.30;83.60
58662;BME280;44432;49.786;22.760;2024-02-16T02:01:53;100067.40;;;-0.35;83.36
58662;BME280;44432;49.786;22.760;2024-02-16T02:04:24;100065.70;;;-0.39;83.53
58662;BME280;44432;49.786;22.760;2024-02-16T02:06:55;100066.26;;;-0.44;83.57
58662;BME280;44432;49.786;22.760;2024-02-16T02:09:26;100066.44;;;-0.48;83.64
58662;BME280;44432;49.786;22.760;2024-02-16T02:11:57;100064.09;;;-0.51;83.93
58662;BME280;44432;49.786;22.760;2024-02-16T02:14:27;100068.75;;;-0.51;84.06
58662;BME280;44432;49.786;22.760;2024-02-16T02:16:58;100066.61;;;-0.50;84.31
58662;BME280;44432;49.786;22.760;2024-02-16T02:19:30;100068.30;;;-0.50;84.38
58662;BME280;44432;49.786;22.760;2024-02-16T02:22:01;100067.59;;;-0.50;84.56
58662;BME280;44432;49.786;22.760;2024-02-16T02:24:31;100071.77;;;-0.50;84.58
58662;BME280;44432;49.786;22.760;2024-02-16T02:27:02;100071.95;;;-0.52;84.28
58662;BME280;44432;49.786;22.760;2024-02-16T02:29:33;100073.05;;;-0.53;84.46
58662;BME280;44432;49.786;22.760;2024-02-16T02:32:04;100075.91;;;-0.56;84.19
58662;BME280;44432;49.786;22.760;2024-02-16T02:34:35;100072.94;;;-0.62;83.85
58662;BME280;44432;49.786;22.760;2024-02-16T02:37:07;100074.60;;;-0.68;84.02
58662;BME280;44432;49.786;22.760;2024-02-16T02:39:38;100073.66;;;-0.72;84.07
58662;BME280;44432;49.786;22.760;2024-02-16T02:42:09;100077.70;;;-0.75;84.29
58662;BME280;44432;49.786;22.760;2024-02-16T02:44:40;100075.78;;;-0.77;84.48
58662;BME280;44432;49.786;22.760;2024-02-16T02:47:13;100073.17;;;-0.76;84.66
58662;BME280;44432;49.786;22.760;2024-02-16T02:49:44;100073.60;;;-0.77;84.74
58662;BME280;44432;49.786;22.760;2024-02-16T02:52:15;100074.52;;;-0.76;84.86
58662;BME280;44432;49.786;22.760;2024-02-16T02:54:46;100072.55;;;-0.75;85.03
58662;BME280;44432;49.786;22.760;2024-02-16T02:57:17;100074.35;;;-0.74;85.19
58662;BME280;44432;49.786;22.760;2024-02-16T02:59:48;100073.92;;;-0.73;85.06
58662;BME280;44432;49.786;22.760;2024-02-16T03:02:19;100077.60;;;-0.73;85.05
58662;BME280;44432;49.786;22.760;2024-02-16T03:04:49;100074.19;;;-0.74;85.10
58662;BME280;44432;49.786;22.760;2024-02-16T03:07:20;100076.77;;;-0.74;85.18
58662;BME280;44432;49.786;22.760;2024-02-16T03:09:51;100079.34;;;-0.74;85.25
58662;BME280;44432;49.786;22.760;2024-02-16T03:12:22;100075.60;;;-0.74;85.28
58662;BME280;44432;49.786;22.760;2024-02-16T03:14:53;100074.63;;;-0.75;85.23
58662;BME280;44432;49.786;22.760;2024-02-16T03:17:23;100077.60;;;-0.76;85.24
58662;BME280;44432;49.786;22.760;2024-02-16T03:19:54;100079.67;;;-0.78;85.05
58662;BME280;44432;49.786;22.760;2024-02-16T03:22:25;100079.16;;;-0.82;84.95
58662;BME280;44432;49.786;22.760;2024-02-16T03:24:56;100082.05;;;-0.86;85.13
58662;BME280;44432;49.786;22.760;2024-02-16T03:27:26;100085.02;;;-0.88;85.07
58662;BME280;44432;49.786;22.760;2024-02-16T03:29:57;100081.27;;;-0.89;85.41
58662;BME280;44432;49.786;22.760;2024-02-16T03:32:28;100082.49;;;-0.89;85.52
58662;BME280;44432;49.786;22.760;2024-02-16T03:34:59;100083.52;;;-0.89;85.78
58662;BME280;44432;49.786;22.760;2024-02-16T03:37:30;100077.81;;;-0.89;85.70
58662;BME280;44432;49.786;22.760;2024-02-16T03:40:01;100077.18;;;-0.90;85.62
58662;BME280;44432;49.786;22.760;2024-02-16T03:42:34;100075.99;;;-0.90;85.77
58662;BME280;44432;49.786;22.760;2024-02-16T03:45:06;100074.14;;;-0.91;85.61
58662;BME280;44432;49.786;22.760;2024-02-16T03:47:37;100073.38;;;-0.92;85.49
58662;BME280;44432;49.786;22.760;2024-02-16T03:50:11;100073.63;;;-0.93;85.52
58662;BME280;44432;49.786;22.760;2024-02-16T03:52:43;100074.91;;;-0.94;85.67
58662;BME280;44432;49.786;22.760;2024-02-16T03:55:14;100076.02;;;-0.95;85.90
58662;BME280;44432;49.786;22.760;2024-02-16T03:57:45;100074.33;;;-0.95;85.81
58662;BME280;44432;49.786;22.760;2024-02-16T04:00:17;100075.56;;;-0.96;85.96
58662;BME280;44432;49.786;22.760;2024-02-16T04:02:49;100072.95;;;-0.95;85.88
58662;BME280;44432;49.786;22.760;2024-02-16T04:05:20;100074.59;;;-0.96;86.08
58662;BME280;44432;49.786;22.760;2024-02-16T04:07:52;100075.35;;;-1.00;85.86
58662;BME280;44432;49.786;22.760;2024-02-16T04:10:22;100074.13;;;-1.02;85.83
58662;BME280;44432;49.786;22.760;2024-02-16T04:12:53;100076.09;;;-1.01;85.99
58662;BME280;44432;49.786;22.760;2024-02-16T04:15:24;100076.43;;;-1.00;86.22
58662;BME280;44432;49.786;22.760;2024-02-16T04:17:55;100078.10;;;-1.00;86.24
58662;BME280;44432;49.786;22.760;2024-02-16T04:20:26;100075.17;;;-1.00;86.28
58662;BME280;44432;49.786;22.760;2024-02-16T04:22:57;100074.29;;;-1.00;86.36
58662;BME280;44432;49.786;22.760;2024-02-16T04:25:28;100079.64;;;-1.00;86.28
58662;BME280;44432;49.786;22.760;2024-02-16T04:27:59;100080.98;;;-1.01;86.22
58662;BME280;44432;49.786;22.760;2024-02-16T04:30:29;100082.61;;;-1.02;86.33
58662;BME280;44432;49.786;22.760;2024-02-16T04:33:00;100081.89;;;-1.04;86.23
58662;BME280;44432;49.786;22.760;2024-02-16T04:35:31;100081.77;;;-1.06;86.15
58662;BME280;44432;49.786;22.760;2024-02-16T04:38:03;100086.23;;;-1.06;86.31
58662;BME280;44432;49.786;22.760;2024-02-16T04:40:37;100085.46;;;-1.07;86.40
58662;BME280;44432;49.786;22.760;2024-02-16T04:43:08;100088.36;;;-1.07;86.36
58662;BME280;44432;49.786;22.760;2024-02-16T04:45:38;100090.11;;;-1.07;86.55
58662;BME280;44432;49.786;22.760;2024-02-16T04:48:10;100097.78;;;-1.08;86.53
58662;BME280;44432;49.786;22.760;2024-02-16T04:50:41;100094.73;;;-1.11;86.04
58662;BME280;44432;49.786;22.760;2024-02-16T04:53:12;100095.95;;;-1.13;86.35
58662;BME280;44432;49.786;22.760;2024-02-16T04:55:42;100093.98;;;-1.15;86.18
58662;BME280;44432;49.786;22.760;2024-02-16T04:58:13;100092.44;;;-1.17;86.25
58662;BME280;44432;49.786;22.760;2024-02-16T05:00:44;100092.04;;;-1.16;86.39
58662;BME280;44432;49.786;22.760;2024-02-16T05:03:16;100089.59;;;-1.16;86.52
58662;BME280;44432;49.786;22.760;2024-02-16T05:05:47;100089.14;;;-1.17;86.57
58662;BME280;44432;49.786;22.760;2024-02-16T05:08:18;100090.20;;;-1.17;86.61
58662;BME280;44432;49.786;22.760;2024-02-16T05:10:48;100087.14;;;-1.17;86.34
58662;BME280;44432;49.786;22.760;2024-02-16T05:13:19;100090.81;;;-1.18;86.45
58662;BME280;44432;49.786;22.760;2024-02-16T05:15:50;100086.85;;;-1.18;86.52
58662;BME280;44432;49.786;22.760;2024-02-16T05:18:24;100095.92;;;-1.19;86.74
58662;BME280;44432;49.786;22.760;2024-02-16T05:20:57;100094.58;;;-1.20;86.58
58662;BME280;44432;49.786;22.760;2024-02-16T05:23:27;100097.86;;;-1.20;86.82
58662;BME280;44432;49.786;22.760;2024-02-16T05:25:57;100097.66;;;-1.22;86.80
58662;BME280;44432;49.786;22.760;2024-02-16T05:28:28;100100.16;;;-1.23;86.61
58662;BME280;44432;49.786;22.760;2024-02-16T05:31:12;100106.28;;;-1.22;86.87
58662;BME280;44432;49.786;22.760;2024-02-16T05:33:50;100103.69;;;-1.22;86.87
58662;BME280;44432;49.786;22.760;2024-02-16T05:36:22;100108.30;;;-1.21;87.01
58662;BME280;44432;49.786;22.760;2024-02-16T05:38:54;100111.89;;;-1.21;86.86
58662;BME280;44432;49.786;22.760;2024-02-16T05:41:26;100110.95;;;-1.19;86.94
58662;BME280;44432;49.786;22.760;2024-02-16T05:43:56;100112.20;;;-1.18;86.98
58662;BME280;44432;49.786;22.760;2024-02-16T05:46:27;100111.82;;;-1.17;86.74
58662;BME280;44432;49.786;22.760;2024-02-16T05:48:58;100112.45;;;-1.17;87.01
58662;BME280;44432;49.786;22.760;2024-02-16T05:51:34;100112.43;;;-1.16;86.72
58662;BME280;44432;49.786;22.760;2024-02-16T05:54:05;100122.02;;;-1.13;87.17
58662;BME280;44432;49.786;22.760;2024-02-16T05:56:37;100124.12;;;-1.11;86.96
58662;BME280;44432;49.786;22.760;2024-02-16T05:59:08;100125.20;;;-1.09;86.83
58662;BME280;44432;49.786;22.760;2024-02-16T06:01:39;100128.24;;;-1.09;87.04
58662;BME280;44432;49.786;22.760;2024-02-16T06:04:10;100127.46;;;-1.05;87.30
58662;BME280;44432;49.786;22.760;2024-02-16T06:06:41;100128.16;;;-1.01;87.14
58662;BME280;44432;49.786;22.760;2024-02-16T06:09:12;100126.00;;;-0.98;87.05
58662;BME280;44432;49.786;22.760;2024-02-16T06:11:43;100130.95;;;-0.97;86.87
58662;BME280;44432;49.786;22.760;2024-02-16T06:14:13;100128.10;;;-0.93;87.03
58662;BME280;44432;49.786;22.760;2024-02-16T06:16:44;100133.45;;;-0.89;87.15
58662;BME280;44432;49.786;22.760;2024-02-16T06:19:15;100134.02;;;-0.85;87.04
58662;BME280;44432;49.786;22.760;2024-02-16T06:21:46;100139.73;;;-0.81;86.80
58662;BME280;44432;49.786;22.760;2024-02-16T06:24:17;100137.98;;;-0.76;87.16
58662;BME280;44432;49.786;22.760;2024-02-16T06:26:48;100143.00;;;-0.70;87.41
58662;BME280;44432;49.786;22.760;2024-02-16T06:29:19;100144.44;;;-0.64;87.29
58662;BME280;44432;49.786;22.760;2024-02-16T06:31:51;100147.14;;;-0.58;87.18
58662;BME280;44432;49.786;22.760;2024-02-16T06:34:22;100153.23;;;-0.50;87.30
58662;BME280;44432;49.786;22.760;2024-02-16T06:36:53;100153.70;;;-0.43;87.48
58662;BME280;44432;49.786;22.760;2024-02-16T06:39:24;100153.16;;;-0.34;87.35
58662;BME280;44432;49.786;22.760;2024-02-16T06:41:54;100158.55;;;-0.25;87.39
58662;BME280;44432;49.786;22.760;2024-02-16T06:44:25;100158.60;;;-0.18;87.31
58662;BME280;44432;49.786;22.760;2024-02-16T06:46:56;100152.87;;;-0.11;87.04
58662;BME280;44432;49.786;22.760;2024-02-16T06:49:27;100152.33;;;-0.07;86.68
58662;BME280;44432;49.786;22.760;2024-02-16T06:51:58;100152.27;;;-0.02;86.73
58662;BME280;44432;49.786;22.760;2024-02-16T06:54:29;100150.90;;;0.05;86.73
58662;BME280;44432;49.786;22.760;2024-02-16T06:57:00;100153.45;;;0.10;86.64
58662;BME280;44432;49.786;22.760;2024-02-16T06:59:32;100155.92;;;0.17;86.63
58662;BME280;44432;49.786;22.760;2024-02-16T07:02:04;100155.03;;;0.26;86.85
58662;BME280;44432;49.786;22.760;2024-02-16T07:04:35;100156.89;;;0.35;87.02
58662;BME280;44432;49.786;22.760;2024-02-16T07:07:06;100159.77;;;0.44;86.98
58662;BME280;44432;49.786;22.760;2024-02-16T07:09:38;100159.29;;;0.54;86.97
58662;BME280;44432;49.786;22.760;2024-02-16T07:12:10;100160.63;;;0.63;86.83
58662;BME280;44432;49.786;22.760;2024-02-16T07:14:42;100166.05;;;0.73;86.92
58662;BME280;44432;49.786;22.760;2024-02-16T07:17:13;100166.88;;;0.82;86.88
58662;BME280;44432;49.786;22.760;2024-02-16T07:19:44;100165.77;;;0.90;86.57
58662;BME280;44432;49.786;22.760;2024-02-16T07:22:15;100164.75;;;0.98;86.43
58662;BME280;44432;49.786;22.760;2024-02-16T07:24:46;100165.46;;;1.06;86.40
58662;BME280;44432;49.786;22.760;2024-02-16T07:27:17;100165.24;;;1.13;86.29
58662;BME280;44432;49.786;22.760;2024-02-16T07:29:48;100164.94;;;1.18;86.01
58662;BME280;44432;49.786;22.760;2024-02-16T07:32:23;100165.52;;;1.24;85.94
58662;BME280;44432;49.786;22.760;2024-02-16T07:34:55;100158.53;;;1.30;85.79
58662;BME280;44432;49.786;22.760;2024-02-16T07:37:26;100160.48;;;1.38;85.91
58662;BME280;44432;49.786;22.760;2024-02-16T07:39:59;100157.66;;;1.48;86.01
58662;BME280;44432;49.786;22.760;2024-02-16T07:42:30;100160.35;;;1.59;86.00
58662;BME280;44432;49.786;22.760;2024-02-16T07:45:01;100156.98;;;1.70;86.57
58662;BME280;44432;49.786;22.760;2024-02-16T07:47:34;100154.15;;;1.82;86.14
58662;BME280;44432;49.786;22.760;2024-02-16T07:50:06;100152.63;;;1.94;85.99
58662;BME280;44432;49.786;22.760;2024-02-16T07:52:39;100151.34;;;2.06;85.96
58662;BME280;44432;49.786;22.760;2024-02-16T07:55:10;100148.58;;;2.19;85.59
58662;BME280;44432;49.786;22.760;2024-02-16T07:57:41;100154.83;;;2.33;85.35
58662;BME280;44432;49.786;22.760;2024-02-16T08:00:13;100146.76;;;2.43;85.13
58662;BME280;44432;49.786;22.760;2024-02-16T08:02:46;100152.50;;;2.56;84.71
58662;BME280;44432;49.786;22.760;2024-02-16T08:05:17;100146.89;;;2.67;84.47
58662;BME280;44432;49.786;22.760;2024-02-16T08:07:48;100147.43;;;2.77;84.32
58662;BME280;44432;49.786;22.760;2024-02-16T08:10:21;100149.25;;;2.90;84.48
58662;BME280;44432;49.786;22.760;2024-02-16T08:12:51;100146.44;;;3.01;84.06
58662;BME280;44432;49.786;22.760;2024-02-16T08:15:22;100150.83;;;3.10;83.70
58662;BME280;44432;49.786;22.760;2024-02-16T08:17:53;100151.64;;;3.18;83.25
58662;BME280;44432;49.786;22.760;2024-02-16T08:20:24;100149.25;;;3.24;82.81
58662;BME280;44432;49.786;22.760;2024-02-16T08:22:55;100146.92;;;3.31;82.52
58662;BME280;44432;49.786;22.760;2024-02-16T08:25:27;100146.77;;;3.42;82.70
58662;BME280;44432;49.786;22.760;2024-02-16T08:28:00;100147.16;;;3.50;82.27
58662;BME280;44432;49.786;22.760;2024-02-16T08:30:30;100147.95;;;3.62;82.38
58662;BME280;44432;49.786;22.760;2024-02-16T08:33:02;100145.50;;;3.72;82.15
58662;BME280;44432;49.786;22.760;2024-02-16T08:35:34;100148.06;;;3.79;81.78
58662;BME280;44432;49.786;22.760;2024-02-16T08:38:05;100147.47;;;3.88;81.46
58662;BME280;44432;49.786;22.760;2024-02-16T08:40:40;100149.72;;;3.98;81.29
58662;BME280;44432;49.786;22.760;2024-02-16T08:43:10;100148.59;;;4.06;81.10
58662;BME280;44432;49.786;22.760;2024-02-16T08:45:41;100151.70;;;4.15;80.96
58662;BME280;44432;49.786;22.760;2024-02-16T08:48:12;100154.50;;;4.23;80.75
58662;BME280;44432;49.786;22.760;2024-02-16T08:50:43;100157.21;;;4.31;80.22
58662;BME280;44432;49.786;22.760;2024-02-16T08:53:15;100154.48;;;4.40;80.21
58662;BME280;44432;49.786;22.760;2024-02-16T08:55:46;100151.36;;;4.52;80.17
58662;BME280;44432;49.786;22.760;2024-02-16T08:58:17;100151.30;;;4.61;80.10
58662;BME280;44432;49.786;22.760;2024-02-16T09:00:49;100152.16;;;4.72;79.75
58662;BME280;44432;49.786;22.760;2024-02-16T09:03:20;100152.65;;;4.80;79.51
58662;BME280;44432;49.786;22.760;2024-02-16T09:05:51;100151.98;;;4.90;79.34
58662;BME280;44432;49.786;22.760;2024-02-16T09:08:22;100152.87;;;5.01;79.13
58662;BME280;44432;49.786;22.760;2024-02-16T09:10:54;100154.30;;;5.05;78.35
58662;BME280;44432;49.786;22.760;2024-02-16T09:13:25;100152.88;;;5.09;78.10
58662;BME280;44432;49.786;22.760;2024-02-16T09:15:56;100154.45;;;5.14;77.96
58662;BME280;44432;49.786;22.760;2024-02-16T09:18:27;100152.77;;;5.20;78.10
58662;BME280;44432;49.786;22.760;2024-02-16T09:20:58;100151.66;;;5.28;77.86
58662;BME280;44432;49.786;22.760;2024-02-16T09:23:29;100147.52;;;5.34;77.77
58662;BME280;44432;49.786;22.760;2024-02-16T09:26:00;100144.72;;;5.41;77.25
58662;BME280;44432;49.786;22.760;2024-02-16T09:28:31;100140.29;;;5.45;76.99
58662;BME280;44432;49.786;22.760;2024-02-16T09:31:02;100139.35;;;5.50;76.79
58662;BME280;44432;49.786;22.760;2024-02-16T09:33:33;100139.30;;;5.57;76.47
58662;BME280;44432;49.786;22.760;2024-02-16T09:36:07;100136.52;;;5.64;76.59
58662;BME280;44432;49.786;22.760;2024-02-16T09:38:38;100141.09;;;5.71;76.07
58662;BME280;44432;49.786;22.760;2024-02-16T09:41:09;100143.95;;;5.78;76.35
58662;BME280;44432;49.786;22.760;2024-02-16T09:43:40;100140.38;;;5.86;75.84
58662;BME280;44432;49.786;22.760;2024-02-16T09:46:11;100141.14;;;5.92;75.86
58662;BME280;44432;49.786;22.760;2024-02-16T09:48:45;100143.02;;;6.01;76.21
58662;BME280;44432;49.786;22.760;2024-02-16T09:51:18;100141.85;;;6.10;75.50
58662;BME280;44432;49.786;22.760;2024-02-16T09:53:51;100141.75;;;6.21;75.81
58662;BME280;44432;49.786;22.760;2024-02-16T09:56:25;100139.51;;;6.33;75.60
58662;BME280;44432;49.786;22.760;2024-02-16T09:58:56;100141.11;;;6.43;75.28
58662;BME280;44432;49.786;22.760;2024-02-16T10:01:29;100140.13;;;6.52;75.15
58662;BME280;44432;49.786;22.760;2024-02-16T10:04:06;100136.48;;;6.60;74.72
58662;BME280;44432;49.786;22.760;2024-02-16T10:06:48;100137.38;;;6.71;74.42
58662;BME280;44432;49.786;22.760;2024-02-16T10:09:26;100131.66;;;6.76;74.36
58662;BME280;44432;49.786;22.760;2024-02-16T10:11:58;100129.68;;;6.87;74.69
58662;BME280;44432;49.786;22.760;2024-02-16T10:14:30;100128.55;;;6.96;73.75
58662;BME280;44432;49.786;22.760;2024-02-16T10:17:02;100127.77;;;7.04;73.85
58662;BME280;44432;49.786;22.760;2024-02-16T10:19:34;100123.40;;;7.13;73.66
58662;BME280;44432;49.786;22.760;2024-02-16T10:22:10;100114.38;;;7.22;73.91
58662;BME280;44432;49.786;22.760;2024-02-16T10:24:42;100112.41;;;7.32;73.91
58662;BME280;44432;49.786;22.760;2024-02-16T10:27:16;100110.27;;;7.40;73.20
58662;BME280;44432;49.786;22.760;2024-02-16T10:29:49;100108.06;;;7.50;72.84
58662;BME280;44432;49.786;22.760;2024-02-16T10:32:23;100109.77;;;7.58;72.60
58662;BME280;44432;49.786;22.760;2024-02-16T10:34:55;100108.63;;;7.65;72.32
58662;BME280;44432;49.786;22.760;2024-02-16T10:37:27;100102.63;;;7.73;72.49
58662;BME280;44432;49.786;22.760;2024-02-16T10:39:58;100095.97;;;7.82;72.27
58662;BME280;44432;49.786;22.760;2024-02-16T10:42:30;100090.29;;;7.92;72.33
58662;BME280;44432;49.786;22.760;2024-02-16T10:45:05;100088.50;;;8.02;72.24
58662;BME280;44432;49.786;22.760;2024-02-16T10:47:36;100078.21;;;8.10;72.09
58662;BME280;44432;49.786;22.760;2024-02-16T10:50:09;100074.52;;;8.19;71.94
58662;BME280;44432;49.786;22.760;2024-02-16T10:52:41;100071.23;;;8.25;71.61
58662;BME280;44432;49.786;22.760;2024-02-16T10:55:14;100069.02;;;8.29;71.37
58662;BME280;44432;49.786;22.760;2024-02-16T10:57:46;100069.59;;;8.35;71.35
58662;BME280;44432;49.786;22.760;2024-02-16T11:00:19;100063.76;;;8.40;71.12
58662;BME280;44432;49.786;22.760;2024-02-16T11:02:52;100057.34;;;8.43;70.87
58662;BME280;44432;49.786;22.760;2024-02-16T11:05:39;100058.56;;;8.46;70.80
58662;BME280;44432;49.786;22.760;2024-02-16T11:08:15;100054.14;;;8.48;70.54
58662;BME280;44432;49.786;22.760;2024-02-16T11:10:59;100055.26;;;8.49;70.07
58662;BME280;44432;49.786;22.760;2024-02-16T11:13:36;100053.28;;;8.48;70.18
58662;BME280;44432;49.786;22.760;2024-02-16T11:16:08;100052.29;;;8.55;70.68
58662;BME280;44432;49.786;22.760;2024-02-16T11:18:43;100048.76;;;8.63;70.48
58662;BME280;44432;49.786;22.760;2024-02-16T11:21:18;100045.98;;;8.67;70.23
58662;BME280;44432;49.786;22.760;2024-02-16T11:23:49;100044.75;;;8.71;70.05
58662;BME280;44432;49.786;22.760;2024-02-16T11:26:20;100044.69;;;8.76;70.19
58662;BME280;44432;49.786;22.760;2024-02-16T11:28:53;100042.41;;;8.80;70.01
58662;BME280;44432;49.786;22.760;2024-02-16T11:31:25;100036.41;;;8.84;69.89
58662;BME280;44432;49.786;22.760;2024-02-16T11:33:56;100030.77;;;8.89;70.09
58662;BME280;44432;49.786;22.760;2024-02-16T11:36:27;100031.02;;;8.95;69.82
58662;BME280;44432;49.786;22.760;2024-02-16T11:38:58;100029.41;;;9.00;69.89
58662;BME280;44432;49.786;22.760;2024-02-16T11:41:28;100024.86;;;9.02;69.70
58662;BME280;44432;49.786;22.760;2024-02-16T11:44:02;100023.79;;;9.07;69.68
58662;BME280;44432;49.786;22.760;2024-02-16T11:46:33;100020.46;;;9.10;69.50
58662;BME280;44432;49.786;22.760;2024-02-16T11:49:12;100016.97;;;9.12;69.54
58662;BME280;44432;49.786;22.760;2024-02-16T11:51:43;100012.71;;;9.16;69.43
58662;BME280;44432;49.786;22.760;2024-02-16T11:54:14;100008.63;;;9.17;69.40
58662;BME280;44432;49.786;22.760;2024-02-16T11:56:46;100011.61;;;9.19;69.00
58662;BME280;44432;49.786;22.760;2024-02-16T11:59:21;100012.05;;;9.18;69.00
58662;BME280;44432;49.786;22.760;2024-02-16T12:01:53;100007.09;;;9.17;68.87
58662;BME280;44432;49.786;22.760;2024-02-16T12:04:26;100001.33;;;9.17;69.01
58662;BME280;44432;49.786;22.760;2024-02-16T12:06:59;99996.03;;;9.22;69.32
58662;BME280;44432;49.786;22.760;2024-02-16T12:09:31;99992.04;;;9.27;69.44
58662;BME280;44432;49.786;22.760;2024-02-16T12:12:06;99989.20;;;9.34;69.51
58662;BME280;44432;49.786;22.760;2024-02-16T12:14:37;99986.39;;;9.40;69.53
58662;BME280;44432;49.786;22.760;2024-02-16T12:17:08;99986.61;;;9.46;69.40
58662;BME280;44432;49.786;22.760;2024-02-16T12:19:44;99979.59;;;9.49;68.93
58662;BME280;44432;49.786;22.760;2024-02-16T12:22:19;99970.88;;;9.50;68.94
58662;BME280;44432;49.786;22.760;2024-02-16T12:24:51;99968.54;;;9.55;68.82
58662;BME280;44432;49.786;22.760;2024-02-16T12:27:22;99967.02;;;9.57;68.74
58662;BME280;44432;49.786;22.760;2024-02-16T12:29:53;99968.83;;;9.60;68.69
58662;BME280;44432;49.786;22.760;2024-02-16T12:32:24;99970.21;;;9.61;68.55
58662;BME280;44432;49.786;22.760;2024-02-16T12:34:55;99970.16;;;9.65;68.61
58662;BME280;44432;49.786;22.760;2024-02-16T12:37:27;99966.63;;;9.69;68.45
58662;BME280;44432;49.786;22.760;2024-02-16T12:39:58;99964.05;;;9.71;68.33
58662;BME280;44432;49.786;22.760;2024-02-16T12:42:28;99961.64;;;9.73;68.20
58662;BME280;44432;49.786;22.760;2024-02-16T12:45:01;99955.88;;;9.73;68.04
58662;BME280;44432;49.786;22.760;2024-02-16T12:47:32;99954.17;;;9.78;68.16
58662;BME280;44432;49.786;22.760;2024-02-16T12:50:04;99955.06;;;9.82;68.00
58662;BME280;44432;49.786;22.760;2024-02-16T12:52:35;99950.76;;;9.88;67.86
58662;BME280;44432;49.786;22.760;2024-02-16T12:55:09;99947.52;;;9.92;67.80
58662;BME280;44432;49.786;22.760;2024-02-16T12:57:40;99948.02;;;9.95;67.46
58662;BME280;44432;49.786;22.760;2024-02-16T13:00:12;99947.76;;;9.99;67.50
58662;BME280;44432;49.786;22.760;2024-02-16T13:02:42;99949.09;;;10.02;67.37
58662;BME280;44432;49.786;22.760;2024-02-16T13:05:14;99949.54;;;10.04;67.14
58662;BME280;44432;49.786;22.760;2024-02-16T13:07:45;99950.02;;;10.07;67.42